sensor_id;sensor_type;location;lat;lon;timestamp;P1;durP1;ratioP1;P2;durP2;ratioP2
6346;SDS011;3206;42.666;23.600;2023-06-19T00:00:11;0.68;;;0.40;;
6346;SDS011;3206;42.666;23.600;2023-06-19T00:03:36;2.47;;;0.88;;
6346;SDS011;3206;42.666;23.600;2023-06-19T00:07:03;3.90;;;0.85;;
6346;SDS011;3206;42.666;23.600;2023-06-19T00:10:31;0.50;;;0.40;;
6346;SDS011;3206;42.666;23.600;2023-06-19T00:13:56;0.50;;;0.50;;
6346;SDS011;3206;42.666;23.600;2023-06-19T00:17:21;0.40;;;0.40;;
6346;SDS011;3206;42.666;23.600;2023-06-19T00:20:46;1.17;;;0.43;;
6346;SDS011;3206;42.666;23.600;2023-06-19T00:24:13;4.03;;;0.88;;
6346;SDS011;3206;42.666;23.600;2023-06-19T00:27:44;1.42;;;0.52;;
6346;SDS011;3206;42.666;23.600;2023-06-19T00:31:10;1.00;;;0.50;;
6346;SDS011;3206;42.666;23.600;2023-06-19T00:34:35;1.38;;;0.50;;
6346;SDS011;3206;42.666;23.600;2023-06-19T00:38:01;4.88;;;0.88;;
6346;SDS011;3206;42.666;23.600;2023-06-19T00:41:27;1.73;;;0.50;;
6346;SDS011;3206;42.666;23.600;2023-06-19T00:44:52;1.30;;;0.50;;
6346;SDS011;3206;42.666;23.600;2023-06-19T00:48:17;2.95;;;0.75;;
6346;SDS011;3206;42.666;23.600;2023-06-19T00:51:42;4.03;;;0.98;;
6346;SDS011;3206;42.666;23.600;2023-06-19T00:55:08;4.20;;;0.77;;
6346;SDS011;3206;42.666;23.600;2023-06-19T00:58:35;4.78;;;0.88;;
6346;SDS011;3206;42.666;23.600;2023-06-19T01:02:00;6.60;;;1.13;;
6346;SDS011;3206;42.666;23.600;2023-06-19T01:05:26;4.18;;;0.90;;
6346;SDS011;3206;42.666;23.600;2023-06-19T01:09:05;1.33;;;0.50;;
6346;SDS011;3206;42.666;23.600;2023-06-19T01:12:34;1.02;;;0.50;;
6346;SDS011;3206;42.666;23.600;2023-06-19T01:16:07;0.55;;;0.30;;
6346;SDS011;3206;42.666;23.600;2023-06-19T01:19:32;0.30;;;0.30;;
6346;SDS011;3206;42.666;23.600;2023-06-19T01:23:05;3.80;;;0.90;;
6346;SDS011;3206;42.666;23.600;2023-06-19T01:26:31;1.50;;;0.57;;
6346;SDS011;3206;42.666;23.600;2023-06-19T01:29:56;2.03;;;0.60;;
6346;SDS011;3206;42.666;23.600;2023-06-19T01:33:25;3.28;;;1.00;;
6346;SDS011;3206;42.666;23.600;2023-06-19T01:36:52;0.90;;;0.47;;
6346;SDS011;3206;42.666;23.600;2023-06-19T01:40:20;1.83;;;0.52;;
6346;SDS011;3206;42.666;23.600;2023-06-19T01:43:48;4.47;;;0.90;;
6346;SDS011;3206;42.666;23.600;2023-06-19T01:47:14;2.72;;;0.63;;
6346;SDS011;3206;42.666;23.600;2023-06-19T01:50:40;6.82;;;1.10;;
6346;SDS011;3206;42.666;23.600;2023-06-19T01:54:06;8.75;;;1.30;;
6346;SDS011;3206;42.666;23.600;2023-06-19T01:57:33;8.05;;;1.45;;
6346;SDS011;3206;42.666;23.600;2023-06-19T02:00:58;5.18;;;1.25;;
6346;SDS011;3206;42.666;23.600;2023-06-19T02:04:23;2.72;;;0.73;;
6346;SDS011;3206;42.666;23.600;2023-06-19T02:07:48;1.08;;;0.50;;
6346;SDS011;3206;42.666;23.600;2023-06-19T02:11:14;1.95;;;0.60;;
6346;SDS011;3206;42.666;23.600;2023-06-19T02:14:40;0.63;;;0.40;;
6346;SDS011;3206;42.666;23.600;2023-06-19T02:18:06;1.35;;;0.50;;
6346;SDS011;3206;42.666;23.600;2023-06-19T02:21:31;1.90;;;0.57;;
6346;SDS011;3206;42.666;23.600;2023-06-19T02:24:56;0.80;;;0.40;;
6346;SDS011;3206;42.666;23.600;2023-06-19T02:28:21;1.35;;;0.50;;
6346;SDS011;3206;42.666;23.600;2023-06-19T02:31:48;1.30;;;0.50;;
6346;SDS011;3206;42.666;23.600;2023-06-19T02:35:14;0.95;;;0.43;;
6346;SDS011;3206;42.666;23.600;2023-06-19T02:38:44;0.77;;;0.45;;
6346;SDS011;3206;42.666;23.600;2023-06-19T02:42:09;1.75;;;0.60;;
6346;SDS011;3206;42.666;23.600;2023-06-19T02:45:34;1.90;;;0.55;;
6346;SDS011;3206;42.666;23.600;2023-06-19T02:49:01;0.93;;;0.47;;
6346;SDS011;3206;42.666;23.600;2023-06-19T02:52:27;1.42;;;0.55;;
6346;SDS011;3206;42.666;23.600;2023-06-19T02:55:52;4.03;;;0.88;;
6346;SDS011;3206;42.666;23.600;2023-06-19T02:59:17;4.38;;;1.02;;
6346;SDS011;3206;42.666;23.600;2023-06-19T03:02:42;2.45;;;0.65;;
6346;SDS011;3206;42.666;23.600;2023-06-19T03:06:09;2.28;;;0.68;;
6346;SDS011;3206;42.666;23.600;2023-06-19T03:09:34;5.10;;;1.02;;
6346;SDS011;3206;42.666;23.600;2023-06-19T03:12:59;2.08;;;0.55;;
6346;SDS011;3206;42.666;23.600;2023-06-19T03:16:32;7.25;;;1.10;;
6346;SDS011;3206;42.666;23.600;2023-06-19T03:19:57;5.63;;;0.95;;
6346;SDS011;3206;42.666;23.600;2023-06-19T03:23:23;7.53;;;1.25;;
6346;SDS011;3206;42.666;23.600;2023-06-19T03:26:48;4.03;;;0.90;;
6346;SDS011;3206;42.666;23.600;2023-06-19T03:30:14;2.45;;;0.73;;
6346;SDS011;3206;42.666;23.600;2023-06-19T03:33:39;0.40;;;0.40;;
6346;SDS011;3206;42.666;23.600;2023-06-19T03:37:04;1.30;;;0.65;;
6346;SDS011;3206;42.666;23.600;2023-06-19T03:40:32;1.73;;;0.60;;
6346;SDS011;3206;42.666;23.600;2023-06-19T03:43:57;4.32;;;0.85;;
6346;SDS011;3206;42.666;23.600;2023-06-19T03:47:22;4.68;;;0.85;;
6346;SDS011;3206;42.666;23.600;2023-06-19T03:50:47;1.70;;;0.50;;
6346;SDS011;3206;42.666;23.600;2023-06-19T03:54:12;0.70;;;0.40;;
6346;SDS011;3206;42.666;23.600;2023-06-19T03:57:39;1.25;;;0.43;;
6346;SDS011;3206;42.666;23.600;2023-06-19T04:01:04;6.07;;;0.93;;
6346;SDS011;3206;42.666;23.600;2023-06-19T04:04:29;1.92;;;0.50;;
6346;SDS011;3206;42.666;23.600;2023-06-19T04:07:54;3.65;;;0.75;;
6346;SDS011;3206;42.666;23.600;2023-06-19T04:11:19;2.95;;;0.63;;
6346;SDS011;3206;42.666;23.600;2023-06-19T04:14:46;3.55;;;0.70;;
6346;SDS011;3206;42.666;23.600;2023-06-19T04:18:11;3.35;;;0.73;;
6346;SDS011;3206;42.666;23.600;2023-06-19T04:21:36;3.75;;;0.85;;
6346;SDS011;3206;42.666;23.600;2023-06-19T04:25:01;3.33;;;0.70;;
6346;SDS011;3206;42.666;23.600;2023-06-19T04:28:27;3.20;;;0.77;;
6346;SDS011;3206;42.666;23.600;2023-06-19T04:31:57;2.05;;;0.60;;
6346;SDS011;3206;42.666;23.600;2023-06-19T04:35:23;2.97;;;0.70;;
6346;SDS011;3206;42.666;23.600;2023-06-19T04:38:48;5.43;;;1.02;;
6346;SDS011;3206;42.666;23.600;2023-06-19T04:42:15;4.80;;;0.90;;
6346;SDS011;3206;42.666;23.600;2023-06-19T04:45:41;17.13;;;2.17;;
6346;SDS011;3206;42.666;23.600;2023-06-19T04:49:08;17.38;;;2.22;;
6346;SDS011;3206;42.666;23.600;2023-06-19T04:52:34;15.75;;;2.45;;
6346;SDS011;3206;42.666;23.600;2023-06-19T04:56:00;17.17;;;2.30;;
6346;SDS011;3206;42.666;23.600;2023-06-19T04:59:27;4.22;;;0.82;;
6346;SDS011;3206;42.666;23.600;2023-06-19T05:02:53;7.75;;;1.30;;
6346;SDS011;3206;42.666;23.600;2023-06-19T05:06:19;1.85;;;0.52;;
6346;SDS011;3206;42.666;23.600;2023-06-19T05:09:44;10.40;;;1.63;;
6346;SDS011;3206;42.666;23.600;2023-06-19T05:13:10;1.90;;;0.60;;
6346;SDS011;3206;42.666;23.600;2023-06-19T05:16:35;3.92;;;1.00;;
6346;SDS011;3206;42.666;23.600;2023-06-19T05:20:01;5.13;;;0.98;;
6346;SDS011;3206;42.666;23.600;2023-06-19T05:23:27;2.90;;;0.77;;
6346;SDS011;3206;42.666;23.600;2023-06-19T05:26:52;0.88;;;0.43;;
6346;SDS011;3206;42.666;23.600;2023-06-19T05:30:17;3.70;;;0.85;;
6346;SDS011;3206;42.666;23.600;2023-06-19T05:33:43;1.52;;;0.57;;
6346;SDS011;3206;42.666;23.600;2023-06-19T05:37:08;2.75;;;0.77;;
6346;SDS011;3206;42.666;23.600;2023-06-19T05:40:35;0.80;;;0.55;;
6346;SDS011;3206;42.666;23.600;2023-06-19T05:44:00;1.40;;;0.50;;
6346;SDS011;3206;42.666;23.600;2023-06-19T05:47:25;1.77;;;0.60;;
6346;SDS011;3206;42.666;23.600;2023-06-19T05:50:50;10.40;;;1.75;;
6346;SDS011;3206;42.666;23.600;2023-06-19T05:54:16;1.38;;;0.50;;
6346;SDS011;3206;42.666;23.600;2023-06-19T05:57:42;7.95;;;1.33;;
6346;SDS011;3206;42.666;23.600;2023-06-19T06:01:07;5.47;;;1.33;;
6346;SDS011;3206;42.666;23.600;2023-06-19T06:04:32;3.58;;;0.82;;
6346;SDS011;3206;42.666;23.600;2023-06-19T06:07:57;7.38;;;1.25;;
6346;SDS011;3206;42.666;23.600;2023-06-19T06:11:23;10.35;;;1.65;;
6346;SDS011;3206;42.666;23.600;2023-06-19T06:14:49;9.05;;;1.35;;
6346;SDS011;3206;42.666;23.600;2023-06-19T06:18:15;7.90;;;1.23;;
6346;SDS011;3206;42.666;23.600;2023-06-19T06:21:40;18.50;;;2.47;;
6346;SDS011;3206;42.666;23.600;2023-06-19T06:25:05;9.43;;;1.88;;
6346;SDS011;3206;42.666;23.600;2023-06-19T06:28:31;3.88;;;0.95;;
6346;SDS011;3206;42.666;23.600;2023-06-19T06:32:03;16.58;;;2.22;;
6346;SDS011;3206;42.666;23.600;2023-06-19T06:35:29;17.52;;;2.45;;
6346;SDS011;3206;42.666;23.600;2023-06-19T06:38:54;6.28;;;1.23;;
6346;SDS011;3206;42.666;23.600;2023-06-19T06:42:19;10.70;;;1.73;;
6346;SDS011;3206;42.666;23.600;2023-06-19T06:45:44;7.35;;;1.27;;
6346;SDS011;3206;42.666;23.600;2023-06-19T06:49:11;15.40;;;1.92;;
6346;SDS011;3206;42.666;23.600;2023-06-19T06:52:37;17.92;;;2.20;;
6346;SDS011;3206;42.666;23.600;2023-06-19T06:56:02;7.10;;;1.42;;
6346;SDS011;3206;42.666;23.600;2023-06-19T06:59:27;5.90;;;1.10;;
6346;SDS011;3206;42.666;23.600;2023-06-19T07:02:52;7.63;;;1.35;;
6346;SDS011;3206;42.666;23.600;2023-06-19T07:06:20;3.33;;;0.80;;
6346;SDS011;3206;42.666;23.600;2023-06-19T07:09:45;4.38;;;0.90;;
6346;SDS011;3206;42.666;23.600;2023-06-19T07:13:11;3.13;;;0.88;;
6346;SDS011;3206;42.666;23.600;2023-06-19T07:16:36;9.27;;;1.38;;
6346;SDS011;3206;42.666;23.600;2023-06-19T07:20:01;9.70;;;1.35;;
6346;SDS011;3206;42.666;23.600;2023-06-19T07:23:27;12.75;;;1.55;;
6346;SDS011;3206;42.666;23.600;2023-06-19T07:26:52;20.83;;;2.13;;
6346;SDS011;3206;42.666;23.600;2023-06-19T07:30:18;28.63;;;3.03;;
6346;SDS011;3206;42.666;23.600;2023-06-19T07:33:43;16.85;;;1.98;;
6346;SDS011;3206;42.666;23.600;2023-06-19T07:37:08;15.43;;;1.77;;
6346;SDS011;3206;42.666;23.600;2023-06-19T07:40:34;16.55;;;1.73;;
6346;SDS011;3206;42.666;23.600;2023-06-19T07:43:59;22.63;;;2.35;;
6346;SDS011;3206;42.666;23.600;2023-06-19T07:47:26;20.27;;;2.47;;
6346;SDS011;3206;42.666;23.600;2023-06-19T07:50:52;17.80;;;2.30;;
6346;SDS011;3206;42.666;23.600;2023-06-19T07:54:16;18.77;;;2.50;;
6346;SDS011;3206;42.666;23.600;2023-06-19T07:57:43;17.73;;;2.22;;
6346;SDS011;3206;42.666;23.600;2023-06-19T08:01:08;18.63;;;2.25;;
6346;SDS011;3206;42.666;23.600;2023-06-19T08:04:33;43.78;;;4.72;;
6346;SDS011;3206;42.666;23.600;2023-06-19T08:07:58;28.95;;;3.15;;
6346;SDS011;3206;42.666;23.600;2023-06-19T08:11:24;17.98;;;2.10;;
6346;SDS011;3206;42.666;23.600;2023-06-19T08:14:50;18.67;;;2.25;;
6346;SDS011;3206;42.666;23.600;2023-06-19T08:18:15;32.85;;;3.50;;
6346;SDS011;3206;42.666;23.600;2023-06-19T08:21:41;10.13;;;1.48;;
6346;SDS011;3206;42.666;23.600;2023-06-19T08:25:06;11.77;;;1.50;;
6346;SDS011;3206;42.666;23.600;2023-06-19T08:28:33;23.45;;;2.67;;
6346;SDS011;3206;42.666;23.600;2023-06-19T08:31:59;6.80;;;1.10;;
6346;SDS011;3206;42.666;23.600;2023-06-19T08:35:24;5.75;;;1.00;;
6346;SDS011;3206;42.666;23.600;2023-06-19T08:38:49;7.80;;;1.20;;
6346;SDS011;3206;42.666;23.600;2023-06-19T08:42:15;9.68;;;1.70;;
6346;SDS011;3206;42.666;23.600;2023-06-19T08:45:40;3.75;;;0.90;;
6346;SDS011;3206;42.666;23.600;2023-06-19T08:49:08;17.10;;;2.35;;
6346;SDS011;3206;42.666;23.600;2023-06-19T08:52:33;10.38;;;1.50;;
6346;SDS011;3206;42.666;23.600;2023-06-19T08:55:59;15.13;;;1.98;;
6346;SDS011;3206;42.666;23.600;2023-06-19T08:59:26;7.55;;;1.30;;
6346;SDS011;3206;42.666;23.600;2023-06-19T09:02:51;8.38;;;1.35;;
6346;SDS011;3206;42.666;23.600;2023-06-19T09:06:18;12.18;;;1.70;;
6346;SDS011;3206;42.666;23.600;2023-06-19T09:09:44;2.58;;;0.70;;
6346;SDS011;3206;42.666;23.600;2023-06-19T09:13:09;10.32;;;1.75;;
6346;SDS011;3206;42.666;23.600;2023-06-19T09:16:38;8.40;;;1.50;;
6346;SDS011;3206;42.666;23.600;2023-06-19T09:20:04;5.18;;;1.15;;
6346;SDS011;3206;42.666;23.600;2023-06-19T09:23:31;9.55;;;1.35;;
6346;SDS011;3206;42.666;23.600;2023-06-19T09:27:08;11.05;;;1.35;;
6346;SDS011;3206;42.666;23.600;2023-06-19T09:30:50;8.02;;;1.33;;
6346;SDS011;3206;42.666;23.600;2023-06-19T09:34:16;3.20;;;0.70;;
6346;SDS011;3206;42.666;23.600;2023-06-19T09:37:41;9.77;;;1.33;;
6346;SDS011;3206;42.666;23.600;2023-06-19T09:41:07;5.78;;;0.98;;
6346;SDS011;3206;42.666;23.600;2023-06-19T09:44:35;11.38;;;1.55;;
6346;SDS011;3206;42.666;23.600;2023-06-19T09:48:04;5.07;;;0.88;;
6346;SDS011;3206;42.666;23.600;2023-06-19T09:51:20;11.00;;;1.20;;
6346;SDS011;3206;42.666;23.600;2023-06-19T09:54:48;7.78;;;1.00;;
6346;SDS011;3206;42.666;23.600;2023-06-19T09:58:15;21.52;;;2.47;;
6346;SDS011;3206;42.666;23.600;2023-06-19T10:01:40;22.17;;;2.28;;
6346;SDS011;3206;42.666;23.600;2023-06-19T10:05:06;13.55;;;1.55;;
6346;SDS011;3206;42.666;23.600;2023-06-19T10:08:38;12.15;;;1.73;;
6346;SDS011;3206;42.666;23.600;2023-06-19T10:12:04;8.50;;;1.13;;
6346;SDS011;3206;42.666;23.600;2023-06-19T10:15:22;4.95;;;0.85;;
6346;SDS011;3206;42.666;23.600;2023-06-19T10:18:48;7.47;;;0.95;;
6346;SDS011;3206;42.666;23.600;2023-06-19T10:22:03;4.22;;;0.73;;
6346;SDS011;3206;42.666;23.600;2023-06-19T10:25:31;3.97;;;0.70;;
6346;SDS011;3206;42.666;23.600;2023-06-19T10:28:47;16.90;;;1.77;;
6346;SDS011;3206;42.666;23.600;2023-06-19T10:32:18;7.55;;;0.98;;
6346;SDS011;3206;42.666;23.600;2023-06-19T10:34:51;15.63;;;1.70;;
6346;SDS011;3206;42.666;23.600;2023-06-19T10:37:36;2.63;;;0.55;;
6346;SDS011;3206;42.666;23.600;2023-06-19T10:41:02;12.63;;;1.50;;
6346;SDS011;3206;42.666;23.600;2023-06-19T10:44:07;19.25;;;2.08;;
6346;SDS011;3206;42.666;23.600;2023-06-19T10:47:10;14.88;;;1.90;;
6346;SDS011;3206;42.666;23.600;2023-06-19T10:50:34;8.50;;;1.17;;
6346;SDS011;3206;42.666;23.600;2023-06-19T10:53:56;15.57;;;1.92;;
6346;SDS011;3206;42.666;23.600;2023-06-19T10:56:25;9.10;;;1.40;;
6346;SDS011;3206;42.666;23.600;2023-06-19T10:59:20;11.05;;;1.48;;
6346;SDS011;3206;42.666;23.600;2023-06-19T11:02:48;3.80;;;0.57;;
6346;SDS011;3206;42.666;23.600;2023-06-19T11:06:18;4.35;;;0.73;;
6346;SDS011;3206;42.666;23.600;2023-06-19T11:08:50;0.98;;;0.38;;
6346;SDS011;3206;42.666;23.600;2023-06-19T11:11:17;13.60;;;1.67;;
6346;SDS011;3206;42.666;23.600;2023-06-19T11:13:45;21.60;;;2.42;;
6346;SDS011;3206;42.666;23.600;2023-06-19T11:16:14;4.05;;;0.70;;
6346;SDS011;3206;42.666;23.600;2023-06-19T11:18:41;3.65;;;0.65;;
6346;SDS011;3206;42.666;23.600;2023-06-19T11:21:49;18.08;;;2.05;;
6346;SDS011;3206;42.666;23.600;2023-06-19T11:24:47;4.50;;;0.68;;
6346;SDS011;3206;42.666;23.600;2023-06-19T11:27:16;17.42;;;2.13;;
6346;SDS011;3206;42.666;23.600;2023-06-19T11:30:06;5.53;;;0.77;;
6346;SDS011;3206;42.666;23.600;2023-06-19T11:33:30;15.30;;;1.85;;
6346;SDS011;3206;42.666;23.600;2023-06-19T11:36:38;9.20;;;1.20;;
6346;SDS011;3206;42.666;23.600;2023-06-19T11:39:08;8.45;;;1.13;;
6346;SDS011;3206;42.666;23.600;2023-06-19T11:41:38;7.95;;;1.05;;
6346;SDS011;3206;42.666;23.600;2023-06-19T11:45:13;2.75;;;0.63;;
6346;SDS011;3206;42.666;23.600;2023-06-19T11:48:35;9.95;;;1.40;;
6346;SDS011;3206;42.666;23.600;2023-06-19T11:51:17;12.50;;;1.35;;
6346;SDS011;3206;42.666;23.600;2023-06-19T11:54:05;5.15;;;0.82;;
6346;SDS011;3206;42.666;23.600;2023-06-19T11:56:33;23.17;;;2.30;;
6346;SDS011;3206;42.666;23.600;2023-06-19T11:59:00;10.95;;;1.33;;
6346;SDS011;3206;42.666;23.600;2023-06-19T12:01:28;7.63;;;0.95;;
6346;SDS011;3206;42.666;23.600;2023-06-19T12:03:56;5.55;;;0.73;;
6346;SDS011;3206;42.666;23.600;2023-06-19T12:06:23;18.10;;;1.77;;
6346;SDS011;3206;42.666;23.600;2023-06-19T12:09:25;12.35;;;1.38;;
6346;SDS011;3206;42.666;23.600;2023-06-19T12:12:48;7.90;;;1.23;;
6346;SDS011;3206;42.666;23.600;2023-06-19T12:16:04;5.78;;;1.02;;
6346;SDS011;3206;42.666;23.600;2023-06-19T12:18:54;3.65;;;0.60;;
6346;SDS011;3206;42.666;23.600;2023-06-19T12:21:39;7.47;;;1.00;;
6346;SDS011;3206;42.666;23.600;2023-06-19T12:25:03;4.18;;;0.68;;
6346;SDS011;3206;42.666;23.600;2023-06-19T12:28:27;7.40;;;0.98;;
6346;SDS011;3206;42.666;23.600;2023-06-19T12:31:51;4.53;;;0.70;;
6346;SDS011;3206;42.666;23.600;2023-06-19T12:34:26;9.00;;;1.10;;
6346;SDS011;3206;42.666;23.600;2023-06-19T12:36:59;8.23;;;0.93;;
6346;SDS011;3206;42.666;23.600;2023-06-19T12:39:26;13.90;;;1.48;;
6346;SDS011;3206;42.666;23.600;2023-06-19T12:41:53;13.05;;;1.33;;
6346;SDS011;3206;42.666;23.600;2023-06-19T12:44:21;8.98;;;1.05;;
6346;SDS011;3206;42.666;23.600;2023-06-19T12:46:48;4.07;;;0.70;;
6346;SDS011;3206;42.666;23.600;2023-06-19T12:49:14;12.80;;;1.73;;
6346;SDS011;3206;42.666;23.600;2023-06-19T12:51:42;4.97;;;0.75;;
6346;SDS011;3206;42.666;23.600;2023-06-19T12:54:09;16.58;;;1.83;;
6346;SDS011;3206;42.666;23.600;2023-06-19T12:56:36;14.60;;;1.95;;
6346;SDS011;3206;42.666;23.600;2023-06-19T12:59:02;5.43;;;0.80;;
6346;SDS011;3206;42.666;23.600;2023-06-19T13:01:29;9.60;;;1.15;;
6346;SDS011;3206;42.666;23.600;2023-06-19T13:03:56;21.60;;;1.88;;
6346;SDS011;3206;42.666;23.600;2023-06-19T13:06:22;15.23;;;1.52;;
6346;SDS011;3206;42.666;23.600;2023-06-19T13:08:50;7.30;;;1.13;;
6346;SDS011;3206;42.666;23.600;2023-06-19T13:11:17;28.67;;;2.90;;
6346;SDS011;3206;42.666;23.600;2023-06-19T13:13:44;14.45;;;1.65;;
6346;SDS011;3206;42.666;23.600;2023-06-19T13:16:10;22.83;;;1.92;;
6346;SDS011;3206;42.666;23.600;2023-06-19T13:18:37;12.65;;;1.60;;
6346;SDS011;3206;42.666;23.600;2023-06-19T13:21:04;17.55;;;1.98;;
6346;SDS011;3206;42.666;23.600;2023-06-19T13:23:30;16.33;;;1.67;;
6346;SDS011;3206;42.666;23.600;2023-06-19T13:25:58;11.45;;;1.20;;
6346;SDS011;3206;42.666;23.600;2023-06-19T13:28:25;17.50;;;1.75;;
6346;SDS011;3206;42.666;23.600;2023-06-19T13:30:52;11.15;;;1.25;;
6346;SDS011;3206;42.666;23.600;2023-06-19T13:33:18;28.30;;;3.03;;
6346;SDS011;3206;42.666;23.600;2023-06-19T13:35:45;5.00;;;0.90;;
6346;SDS011;3206;42.666;23.600;2023-06-19T13:38:12;16.40;;;1.73;;
6346;SDS011;3206;42.666;23.600;2023-06-19T13:40:40;16.00;;;1.92;;
6346;SDS011;3206;42.666;23.600;2023-06-19T13:43:08;15.30;;;1.83;;
6346;SDS011;3206;42.666;23.600;2023-06-19T13:45:35;10.85;;;1.55;;
6346;SDS011;3206;42.666;23.600;2023-06-19T13:48:03;14.55;;;2.00;;
6346;SDS011;3206;42.666;23.600;2023-06-19T13:50:30;8.90;;;1.23;;
6346;SDS011;3206;42.666;23.600;2023-06-19T13:52:57;4.22;;;0.85;;
6346;SDS011;3206;42.666;23.600;2023-06-19T13:55:24;8.75;;;1.42;;
6346;SDS011;3206;42.666;23.600;2023-06-19T13:57:51;11.00;;;1.58;;
6346;SDS011;3206;42.666;23.600;2023-06-19T14:00:20;21.25;;;2.53;;
6346;SDS011;3206;42.666;23.600;2023-06-19T14:02:47;12.35;;;1.85;;
6346;SDS011;3206;42.666;23.600;2023-06-19T14:05:15;17.52;;;1.95;;
6346;SDS011;3206;42.666;23.600;2023-06-19T14:07:42;2.63;;;0.57;;
6346;SDS011;3206;42.666;23.600;2023-06-19T14:10:09;16.70;;;2.05;;
6346;SDS011;3206;42.666;23.600;2023-06-19T14:12:35;7.72;;;1.38;;
6346;SDS011;3206;42.666;23.600;2023-06-19T14:15:02;7.40;;;1.02;;
6346;SDS011;3206;42.666;23.600;2023-06-19T14:17:31;3.25;;;0.52;;
6346;SDS011;3206;42.666;23.600;2023-06-19T14:19:58;9.32;;;1.20;;
6346;SDS011;3206;42.666;23.600;2023-06-19T14:22:25;8.90;;;1.25;;
6346;SDS011;3206;42.666;23.600;2023-06-19T14:24:51;12.48;;;1.52;;
6346;SDS011;3206;42.666;23.600;2023-06-19T14:27:24;20.80;;;2.28;;
6346;SDS011;3206;42.666;23.600;2023-06-19T14:29:51;8.00;;;1.10;;
6346;SDS011;3206;42.666;23.600;2023-06-19T14:32:18;11.88;;;1.42;;
6346;SDS011;3206;42.666;23.600;2023-06-19T14:34:46;6.32;;;1.02;;
6346;SDS011;3206;42.666;23.600;2023-06-19T14:37:13;10.35;;;1.17;;
6346;SDS011;3206;42.666;23.600;2023-06-19T14:39:40;8.75;;;1.60;;
6346;SDS011;3206;42.666;23.600;2023-06-19T14:42:06;8.73;;;1.15;;
6346;SDS011;3206;42.666;23.600;2023-06-19T14:44:33;14.48;;;1.75;;
6346;SDS011;3206;42.666;23.600;2023-06-19T14:46:59;30.23;;;2.50;;
6346;SDS011;3206;42.666;23.600;2023-06-19T14:49:26;17.63;;;1.70;;
6346;SDS011;3206;42.666;23.600;2023-06-19T14:51:55;15.55;;;1.77;;
6346;SDS011;3206;42.666;23.600;2023-06-19T14:54:22;30.10;;;10.35;;
6346;SDS011;3206;42.666;23.600;2023-06-19T14:56:49;24.38;;;19.85;;
6346;SDS011;3206;42.666;23.600;2023-06-19T14:59:16;20.02;;;11.73;;
6346;SDS011;3206;42.666;23.600;2023-06-19T15:01:43;36.17;;;4.22;;
6346;SDS011;3206;42.666;23.600;2023-06-19T15:04:10;26.65;;;2.75;;
6346;SDS011;3206;42.666;23.600;2023-06-19T15:06:37;11.07;;;9.27;;
6346;SDS011;3206;42.666;23.600;2023-06-19T15:09:04;23.65;;;2.45;;
6346;SDS011;3206;42.666;23.600;2023-06-19T15:11:31;33.30;;;3.05;;
6346;SDS011;3206;42.666;23.600;2023-06-19T15:13:58;27.77;;;2.80;;
6346;SDS011;3206;42.666;23.600;2023-06-19T15:16:25;28.30;;;2.88;;
6346;SDS011;3206;42.666;23.600;2023-06-19T15:18:53;9.10;;;1.20;;
6346;SDS011;3206;42.666;23.600;2023-06-19T15:21:20;27.83;;;2.50;;
6346;SDS011;3206;42.666;23.600;2023-06-19T15:23:47;36.53;;;3.47;;
6346;SDS011;3206;42.666;23.600;2023-06-19T15:26:15;33.90;;;3.00;;
6346;SDS011;3206;42.666;23.600;2023-06-19T15:28:42;20.08;;;2.08;;
6346;SDS011;3206;42.666;23.600;2023-06-19T15:31:09;16.15;;;1.70;;
6346;SDS011;3206;42.666;23.600;2023-06-19T15:33:36;29.65;;;3.13;;
6346;SDS011;3206;42.666;23.600;2023-06-19T15:36:02;0.77;;;0.30;;
6346;SDS011;3206;42.666;23.600;2023-06-19T15:38:29;21.33;;;1.80;;
6346;SDS011;3206;42.666;23.600;2023-06-19T15:40:56;5.18;;;0.77;;
6346;SDS011;3206;42.666;23.600;2023-06-19T15:43:24;9.05;;;1.10;;
6346;SDS011;3206;42.666;23.600;2023-06-19T15:45:53;5.13;;;0.80;;
6346;SDS011;3206;42.666;23.600;2023-06-19T15:48:20;20.80;;;1.83;;
6346;SDS011;3206;42.666;23.600;2023-06-19T15:50:47;14.27;;;1.42;;
6346;SDS011;3206;42.666;23.600;2023-06-19T15:53:14;12.57;;;1.42;;
6346;SDS011;3206;42.666;23.600;2023-06-19T15:55:40;37.22;;;3.05;;
6346;SDS011;3206;42.666;23.600;2023-06-19T15:58:07;13.73;;;1.48;;
6346;SDS011;3206;42.666;23.600;2023-06-19T16:00:35;10.68;;;1.20;;
6346;SDS011;3206;42.666;23.600;2023-06-19T16:03:02;12.55;;;1.40;;
6346;SDS011;3206;42.666;23.600;2023-06-19T16:05:28;32.78;;;2.92;;
6346;SDS011;3206;42.666;23.600;2023-06-19T16:07:55;24.33;;;2.28;;
6346;SDS011;3206;42.666;23.600;2023-06-19T16:10:22;24.60;;;2.28;;
6346;SDS011;3206;42.666;23.600;2023-06-19T16:12:49;15.77;;;1.70;;
6346;SDS011;3206;42.666;23.600;2023-06-19T16:15:15;19.20;;;2.00;;
6346;SDS011;3206;42.666;23.600;2023-06-19T16:17:49;19.83;;;2.13;;
6346;SDS011;3206;42.666;23.600;2023-06-19T16:20:18;10.52;;;1.45;;
6346;SDS011;3206;42.666;23.600;2023-06-19T16:22:45;27.42;;;2.97;;
6346;SDS011;3206;42.666;23.600;2023-06-19T16:25:12;12.55;;;1.63;;
6346;SDS011;3206;42.666;23.600;2023-06-19T16:27:38;17.20;;;2.08;;
6346;SDS011;3206;42.666;23.600;2023-06-19T16:30:05;7.35;;;0.95;;
6346;SDS011;3206;42.666;23.600;2023-06-19T16:32:33;21.63;;;2.50;;
6346;SDS011;3206;42.666;23.600;2023-06-19T16:35:01;12.23;;;1.48;;
6346;SDS011;3206;42.666;23.600;2023-06-19T16:37:27;7.47;;;1.25;;
6346;SDS011;3206;42.666;23.600;2023-06-19T16:39:54;3.22;;;0.88;;
6346;SDS011;3206;42.666;23.600;2023-06-19T16:42:20;7.03;;;1.13;;
6346;SDS011;3206;42.666;23.600;2023-06-19T16:44:48;10.57;;;1.90;;
6346;SDS011;3206;42.666;23.600;2023-06-19T16:47:14;4.13;;;0.95;;
6346;SDS011;3206;42.666;23.600;2023-06-19T16:49:41;9.95;;;1.88;;
6346;SDS011;3206;42.666;23.600;2023-06-19T16:52:09;3.35;;;1.05;;
6346;SDS011;3206;42.666;23.600;2023-06-19T16:54:35;5.47;;;1.23;;
6346;SDS011;3206;42.666;23.600;2023-06-19T16:57:02;4.60;;;1.17;;
6346;SDS011;3206;42.666;23.600;2023-06-19T16:59:29;4.30;;;1.25;;
6346;SDS011;3206;42.666;23.600;2023-06-19T17:01:56;2.00;;;0.65;;
6346;SDS011;3206;42.666;23.600;2023-06-19T17:04:22;3.28;;;0.95;;
6346;SDS011;3206;42.666;23.600;2023-06-19T17:06:49;6.65;;;1.80;;
6346;SDS011;3206;42.666;23.600;2023-06-19T17:09:17;4.57;;;1.30;;
6346;SDS011;3206;42.666;23.600;2023-06-19T17:11:44;4.00;;;1.20;;
6346;SDS011;3206;42.666;23.600;2023-06-19T17:14:10;1.90;;;0.75;;
6346;SDS011;3206;42.666;23.600;2023-06-19T17:16:37;2.83;;;1.15;;
6346;SDS011;3206;42.666;23.600;2023-06-19T17:19:04;1.58;;;0.75;;
6346;SDS011;3206;42.666;23.600;2023-06-19T17:21:30;2.53;;;1.00;;
6346;SDS011;3206;42.666;23.600;2023-06-19T17:23:58;0.50;;;0.50;;
6346;SDS011;3206;42.666;23.600;2023-06-19T17:26:25;1.02;;;0.47;;
6346;SDS011;3206;42.666;23.600;2023-06-19T17:28:52;3.88;;;1.33;;
6346;SDS011;3206;42.666;23.600;2023-06-19T17:31:19;1.45;;;0.50;;
6346;SDS011;3206;42.666;23.600;2023-06-19T17:33:45;8.77;;;2.03;;
6346;SDS011;3206;42.666;23.600;2023-06-19T17:36:12;0.47;;;0.43;;
6346;SDS011;3206;42.666;23.600;2023-06-19T17:38:38;2.25;;;1.05;;
6346;SDS011;3206;42.666;23.600;2023-06-19T17:41:06;2.47;;;0.98;;
6346;SDS011;3206;42.666;23.600;2023-06-19T17:43:34;2.67;;;1.23;;
6346;SDS011;3206;42.666;23.600;2023-06-19T17:46:01;1.02;;;0.60;;
6346;SDS011;3206;42.666;23.600;2023-06-19T17:48:27;1.33;;;0.70;;
6346;SDS011;3206;42.666;23.600;2023-06-19T17:50:54;2.63;;;1.05;;
6346;SDS011;3206;42.666;23.600;2023-06-19T17:53:21;1.38;;;0.60;;
6346;SDS011;3206;42.666;23.600;2023-06-19T17:55:47;3.35;;;1.25;;
6346;SDS011;3206;42.666;23.600;2023-06-19T17:58:14;2.92;;;1.10;;
6346;SDS011;3206;42.666;23.600;2023-06-19T18:00:42;2.70;;;1.02;;
6346;SDS011;3206;42.666;23.600;2023-06-19T18:03:08;0.75;;;0.40;;
6346;SDS011;3206;42.666;23.600;2023-06-19T18:05:35;0.55;;;0.50;;
6346;SDS011;3206;42.666;23.600;2023-06-19T18:08:02;1.17;;;0.55;;
6346;SDS011;3206;42.666;23.600;2023-06-19T18:10:28;1.33;;;0.60;;
6346;SDS011;3206;42.666;23.600;2023-06-19T18:12:55;0.55;;;0.50;;